Detalii statie TRANSAVIA REDIU [0000197C]

Toti senzorii

Date Temperatura solului [C]Precipitatii [mm]Voltaj baterie [mV]Leaf Wetness [Min]HC Air temperature [C]HC Relative humidity [%]Punctul de roua [C]
medieminmaxsumaultimatimpmedieminmaxmediemediemin
2019-10-19 23:00:00 0 6748 7.91 7.54 8.24 0 0 0
2019-10-20 00:00:00 0 6728 7.72 7.35 8.26 0 0 0
2019-10-20 01:00:00 0 6718 7.95 7.28 8.51 8.33 0
2019-10-20 02:00:00 0 6708 8.62 8.32 9.07 0 0 0
2019-10-20 03:00:00 0 6698 8.13 7.58 9.01 16.66 1.2 0
2019-10-20 04:00:00 0 6698 8.46 8.15 8.74 75 0
2019-10-20 05:00:00 0 6708 7.83 7.44 8.31 41.66 0
2019-10-20 06:00:00 0 6688 8.01 7.52 8.47 8.33 0
2019-10-20 07:00:00 0 6708 6.92 6.58 7.33 0 0 0
2019-10-20 08:00:00 0 6728 8.46 6.65 10.84 16.66 1.5 0
2019-10-20 09:00:00 0 6776 14.3 11.19 17.35 16.66 2 0
2019-10-20 10:00:00 0 6786 17.22 16.02 17.9 25 0
2019-10-20 11:00:00 0 6834 17.62 17.26 18.27 8.33 0
2019-10-20 12:00:00 0 7060 18.16 17.89 18.45 0 0 0
2019-10-20 13:00:00 0 7108 18.98 18.44 19.36 0 0 0
2019-10-20 14:00:00 0 7108 19.42 19.18 19.86 0 0 0
2019-10-20 15:00:00 0 7108 19.92 19.78 20.23 0 0 0
2019-10-20 16:00:00 0 7108 20.18 20.04 20.32 0 0 0
2019-10-20 17:00:00 0 6982 19.13 17.58 20 0 0 0
2019-10-20 18:00:00 0 6816 14.81 13 17.2 0 0 0
2019-10-20 19:00:00 0 6796 11.76 10.31 13 0 0 0
2019-10-20 20:00:00 0 6796 10.61 10.24 11.37 0 0 0
2019-10-20 21:00:00 0 6786 9.57 9.32 10.24 0 0 0
2019-10-20 22:00:00 0 6766 8.47 7.67 9.29 0 0 0
2019-10-20 23:00:00 0 6766 7.84 7.49 8.18 0 0 0
2019-10-21 00:00:00 0 6766 7.34 6.92 8 0 0 0
2019-10-21 01:00:00 0 6738 7.62 6.62 8.35 25 0
2019-10-21 02:00:00 0 6728 7.39 6.97 7.86 33.33 2.4 0
2019-10-21 03:00:00 0 6718 6.76 6.41 7.07 100 6.7 6.4
2019-10-21 04:00:00 0 6708 7.17 6.45 7.63 50 3.6 0
2019-10-21 05:00:00 0 6698 6.26 5.94 6.91 91.66 0
2019-10-21 06:00:00 0 6708 5.9 5.59 6.38 66.66 3.9 0
2019-10-21 07:00:00 0 6698 5.66 5.22 6.11 75 0
2019-10-21 08:00:00 0 6756 7.52 5.61 9.85 83.33 5.8 0
2019-10-21 09:00:00 0 6796 12.84 10.31 15.85 0 0 0
2019-10-21 10:00:00 0 6806 17.17 15.73 19.12 0 0 0
2019-10-21 11:00:00 0 6844 18.57 18.07 19.35 0 0 0
2019-10-21 12:00:00 0 7070 19.08 18.65 19.6 0 0 0
2019-10-21 13:00:00 0 7108 19.88 19.49 20.21 0 0 0
2019-10-21 14:00:00 0 7108 20.33 19.84 20.64 0 0 0
2019-10-21 15:00:00 0 7108 20.9 20.59 21.11 0 0 0
2019-10-21 16:00:00 0 7108 20.72 20.36 20.99 0 0 0
2019-10-21 17:00:00 0 6962 18.78 15.96 20.23 0 0 0
2019-10-21 18:00:00 0 6806 13.78 12.48 15.65 0 0 0
2019-10-21 19:00:00 0 6796 11.74 11.42 12.36 0 0 0
2019-10-21 20:00:00 0 6776 10.74 9.97 11.45 25 0